Flight Track Log - Related Links

Times and Time Zones

All times are in EDT time to prevent confusion due to time zone crossing. See the SWA1044 flight status page for this flight to view local times or setup timezone preferences in your user account.

Time Position Orientation Groundspeed Altitude Reporting Facility
EDT Latitude Longitude Course Direction KTS MPH feet Rate Location/Type
Thu 09:43:22 AM 39.2833 -94.7167 270° West 143 165 1,600  Level Kansas City TRACON
Thu 09:43:46 AM 39.2833 -94.7500 270° West 149 171 2,500 1,813 Climbing Kansas City TRACON
Thu 09:44:58 AM 39.2519 -94.7764 213° Southwest 201 231 4,500 2,165 Climbing Kansas City Center
Thu 09:45:59 AM 39.1767 -94.7519 166° South 249 287 7,300 3,148 Climbing Kansas City Center
Thu 09:47:00 AM 39.1064 -94.7281 165° South 267 307 10,900 2,951 Climbing Kansas City Center
Thu 09:48:01 AM 39.0244 -94.7017 166° South 320 368 13,300 2,902 Climbing Kansas City Center
Thu 09:49:02 AM 38.9208 -94.6664 165° South 343 395 16,800 3,072 Climbing Kansas City Center
Thu 09:50:06 AM 38.8283 -94.6350 165° South 357 411 19,700 3,216 Climbing Kansas City Center
Thu 09:51:07 AM 38.7175 -94.5986 166° South 364 419 23,500 3,484 Climbing Kansas City Center
Thu 09:52:10 AM 38.6311 -94.5753 168° South 331 381 26,900 2,537 Climbing Kansas City Center
Thu 09:53:10 AM 38.5456 -94.5564 170° South 326 375 28,700 1,918 Climbing Kansas City Center
Thu 09:54:12 AM 38.4431 -94.5317 169° South 336 387 30,800 1,680 Climbing Kansas City Center
Thu 09:55:15 AM 38.3539 -94.5083 168° South 342 394 32,200 1,065 Climbing Kansas City Center
Thu 09:56:16 AM 38.2447 -94.4742 166° South 357 411 33,000 393 Climbing Kansas City Center
Thu 09:57:17 AM 38.1556 -94.4103 151° Southeast 375 432 33,000  Level Kansas City Center
Thu 09:58:18 AM 38.0503 -94.3383 152° Southeast 383 441 33,000 435 Level Kansas City Center
Thu 09:59:21 AM 37.9594 -94.2778 152° Southeast 384 442 33,900 823 Climbing Kansas City Center
Thu 10:00:22 AM 37.8619 -94.2133 152° Southeast 399 459 34,700 528 Climbing Kansas City Center
Thu 10:01:26 AM 37.7611 -94.1464 152° Southeast 406 467 35,000 145 Climbing Kansas City Center
Thu 10:02:26 AM 37.6417 -94.0658 152° Southeast 405 466 35,000  Level Kansas City Center
Thu 10:03:28 AM 37.5419 -94.0000 152° Southeast 403 464 35,000  Level Kansas City Center
Thu 10:04:32 AM 37.4436 -93.9358 153° Southeast 401 461 35,000 576 Level Kansas City Center
Thu 10:05:33 AM 37.3453 -93.8706 152° Southeast 400 460 36,200 984 Climbing Kansas City Center
Thu 10:06:34 AM 37.2475 -93.8064 152° Southeast 397 457 37,000 390 Climbing Kansas City Center
Thu 10:07:36 AM 37.1475 -93.7408 152° Southeast 400 460 37,000  Level Kansas City Center
Thu 10:08:40 AM 37.0494 -93.6758 152° Southeast 400 460 37,000  Level Kansas City Center
Thu 10:09:40 AM 36.9325 -93.6000 153° Southeast 396 456 37,000  Level Kansas City Center
Thu 10:10:44 AM 36.8381 -93.5389 153° Southeast 397 457 37,000  Level Kansas City Center
Thu 10:11:44 AM 36.7433 -93.4781 153° Southeast 389 448 37,000  Level Kansas City Center
Thu 10:12:45 AM 36.6494 -93.4169 152° Southeast 383 441 37,000  Level Kansas City Center
Thu 10:13:32 AM 36.5728 -93.3669 152° Southeast 392 451 37,000  Level Memphis Center
Thu 10:14:32 AM 36.4781 -93.3094 154° Southeast 382 440 37,000  Level Memphis Center
Thu 10:15:32 AM 36.3817 -93.2492 153° Southeast 382 440 37,000  Level Memphis Center
Thu 10:16:32 AM 36.2933 -93.1894 151° Southeast 377 434 37,000  Level Memphis Center
Thu 10:17:32 AM 36.2008 -93.1269 151° Southeast 377 434 37,000  Level Memphis Center
Thu 10:18:32 AM 36.1083 -93.0750 156° South 377 434 37,000  Level Memphis Center
Thu 10:19:32 AM 36.0158 -93.0131 152° Southeast 377 434 37,000  Level Memphis Center
Thu 10:20:32 AM 35.9211 -92.9511 152° Southeast 377 434 37,000  Level Memphis Center
Thu 10:21:32 AM 35.8306 -92.8944 153° Southeast 377 434 37,000  Level Memphis Center
Thu 10:22:32 AM 35.7358 -92.8328 152° Southeast 377 434 37,000  Level Memphis Center
Thu 10:23:32 AM 35.6431 -92.7789 155° Southeast 377 434 37,000  Level Memphis Center
Thu 10:24:32 AM 35.5400 -92.7144 153° Southeast 377 434 37,000  Level Memphis Center
Thu 10:25:32 AM 35.4472 -92.6533 152° Southeast 382 440 37,000  Level Memphis Center
Thu 10:26:32 AM 35.3564 -92.6000 154° Southeast 377 434 37,000 350 Level Memphis Center
Thu 10:27:32 AM 35.2636 -92.5414 153° Southeast 377 434 37,700 800 Climbing Memphis Center
Thu 10:28:32 AM 35.1750 -92.4858 153° Southeast 377 434 38,600 650 Climbing Memphis Center
Thu 10:29:32 AM 35.0758 -92.4275 154° Southeast 382 440 39,000 200 Climbing Memphis Center
Thu 10:30:32 AM 34.9831 -92.3644 151° Southeast 382 440 39,000  Level Memphis Center
Thu 10:31:32 AM 34.8858 -92.3089 155° Southeast 382 440 39,000  Level Memphis Center
Thu 10:32:32 AM 34.7928 -92.2511 153° Southeast 382 440 39,000  Level Memphis Center
Thu 10:33:32 AM 34.6997 -92.1936 153° Southeast 382 440 39,000  Level Memphis Center
Thu 10:34:32 AM 34.6067 -92.1386 154° Southeast 382 440 39,000  Level Memphis Center
Thu 10:35:32 AM 34.5136 -92.0836 154° Southeast 377 434 39,000  Level Memphis Center
Thu 10:36:32 AM 34.4203 -92.0289 154° Southeast 377 434 39,000  Level Memphis Center
Thu 10:37:32 AM 34.3272 -91.9744 154° Southeast 377 434 39,000  Level Memphis Center
Thu 10:38:32 AM 34.2361 -91.9200 154° Southeast 377 434 39,000  Level Memphis Center
Thu 10:39:32 AM 34.1469 -91.8656 153° Southeast 372 428 39,000  Level Memphis Center
Thu 10:40:32 AM 34.0681 -91.8217 155° Southeast 365 420 39,000  Level Memphis Center
Thu 10:41:32 AM 33.9792 -91.7675 153° Southeast 360 414 39,000  Level Memphis Center
Thu 10:42:32 AM 33.8753 -91.7133 157° South 372 428 39,000  Level Memphis Center
Thu 10:43:32 AM 33.7736 -91.6492 152° Southeast 378 435 39,000  Level Memphis Center
Thu 10:44:32 AM 33.6761 -91.5978 156° South 378 435 39,000  Level Memphis Center
Thu 10:45:32 AM 33.5931 -91.5467 153° Southeast 373 429 39,000  Level Memphis Center
Thu 10:46:32 AM 33.4997 -91.4931 154° Southeast 378 435 39,000  Level Memphis Center
Thu 10:47:32 AM 33.4083 -91.4372 153° Southeast 378 435 39,000  Level Memphis Center
Thu 10:48:32 AM 33.3108 -91.3864 156° South 378 435 39,000  Level Memphis Center
Thu 10:49:32 AM 33.2150 -91.3306 154° Southeast 378 435 39,000  Level Memphis Center
Thu 10:50:32 AM 33.1175 -91.2750 154° Southeast 383 441 39,000  Level Memphis Center
Thu 10:51:32 AM 33.0175 -91.2194 155° Southeast 383 441 39,000  Level Memphis Center
Thu 10:52:32 AM 32.9178 -91.1592 153° Southeast 393 452 39,000  Level Memphis Center
Thu 10:53:32 AM 32.8158 -91.1039 155° Southeast 398 458 39,000  Level Memphis Center
Thu 10:54:32 AM 32.7139 -91.0436 154° Southeast 398 458 39,000  Level Memphis Center
Thu 10:55:32 AM 32.6139 -90.9886 155° Southeast 403 464 39,000  Level Memphis Center
Thu 10:56:32 AM 32.5119 -90.9314 155° Southeast 396 456 39,000 -300 Level Memphis Center
Thu 10:57:32 AM 32.4119 -90.8717 153° Southeast 396 456 38,400 -850 Descending Memphis Center
Thu 10:58:32 AM 32.2994 -90.8094 155° Southeast 404 465 37,300 -1,100 Descending Memphis Center
Thu 10:59:32 AM 32.1975 -90.7525 155° Southeast 404 465 36,200 -1,750 Descending Memphis Center
Thu 11:00:32 AM 32.0911 -90.6908 154° Southeast 404 465 33,800 -2,080 Descending Memphis Center
Thu 11:00:47 AM 32.0861 -90.6883 157° South 418 481 33,600 -2,416 Descending Houston Center
Thu 11:01:49 AM 31.9614 -90.6178 154° Southeast 416 479 30,700 -2,274 Descending Houston Center
Thu 11:02:51 AM 31.8589 -90.5622 155° Southeast 410 472 28,900 -871 Descending Houston Center
Thu 11:03:53 AM 31.7594 -90.5081 155° Southeast 398 458 28,900 -435 Level Houston Center
Thu 11:04:55 AM 31.6647 -90.4553 155° Southeast 384 442 28,000 -435 Descending Houston Center
Thu 11:05:57 AM 31.5733 -90.4061 155° Southeast 368 423 28,000 -484 Level Houston Center
Thu 11:06:59 AM 31.4642 -90.3453 155° Southeast 362 417 27,000 -919 Descending Houston Center
Thu 11:08:01 AM 31.3750 -90.2967 155° Southeast 357 411 26,100 -1,152 Descending Houston Center
Thu 11:09:04 AM 31.2886 -90.2556 158° South 338 389 24,600 -1,584 Descending Houston Center
Thu 11:10:06 AM 31.2014 -90.2508 177° South 316 364 22,800 -1,742 Descending Houston Center
Thu 11:11:08 AM 31.1161 -90.2442 176° South 309 356 21,000 -1,500 Descending Houston Center
Thu 11:12:10 AM 31.0239 -90.2372 176° South 327 376 19,700 -1,887 Descending Houston Center
Thu 11:13:12 AM 30.9178 -90.2289 176° South 320 368 17,100 -2,378 Descending Houston Center
Thu 11:14:01 AM 30.8481 -90.2089 166° South 325 374 15,300 -2,323 Descending Houston Center
Thu 11:15:16 AM 30.7514 -90.1775 164° South 307 353 12,300 -2,348 Descending Houston Center
Thu 11:15:33 AM 30.7217 -90.1753 176° South 296 341 11,700 -1,645 Descending Houston Center
Thu 11:16:18 AM 30.6703 -90.1669 172° South 297 342 10,600 -1,701 Descending Houston Center
Thu 11:16:40 AM 30.6308 -90.1453 155° Southeast 295 339 9,800 -968 Descending Houston Center
Thu 11:17:20 AM 30.5969 -90.1253 153° Southeast 295 339 9,600 -806 Descending Houston Center
Thu 11:17:47 AM 30.5567 -90.1050 157° South 266 306 8,900 -1,161 Descending Houston Center
Thu 11:18:22 AM 30.5300 -90.0936 160° South 279 321 8,400 -1,082 Descending Houston Center
Thu 11:18:48 AM 30.4872 -90.0958 183° South 243 280 7,800 -871 Descending Houston Center
Thu 11:19:24 AM 30.4519 -90.0983 183° South 247 284 7,500 -393 Descending Houston Center
Thu 11:19:49 AM 30.4292 -90.1078 200° South 206 237 7,400 -387 Descending Houston Center
Thu 11:20:26 AM 30.4019 -90.1175 197° South 215 247 7,100 -545 Descending Houston Center
Thu 11:20:44 AM 30.3858 -90.1242 200° South 169 194 6,900 -774 Descending Houston Center
Thu 11:21:28 AM 30.3594 -90.1328 196° South 181 208 6,300 -1,000 Descending Houston Center
Thu 11:21:44 AM 30.3444 -90.1378 196° South 148 170 5,900 -1,065 Descending Houston Center
Thu 11:22:30 AM 30.3192 -90.1447 193° South 160 184 5,200 -724 Descending Houston Center
Thu 11:23:40 AM 30.2658 -90.1628 196° South 153 176 4,500 -726 Descending Houston Center
Thu 11:24:34 AM 30.2303 -90.1736 195° South 152 175 3,700 -931 Descending Houston Center
Thu 11:25:36 AM 30.1914 -90.1850 194° South 140 161 2,700 -836 Descending Houston Center
Thu 11:26:36 AM 30.1519 -90.1986 197° South 139 160 2,000 -336 Descending Houston Center
Thu 11:27:41 AM 30.1192 -90.2086 195° South 139 160 2,000 -103 Level Houston Center
Thu 11:28:32 AM 30.0878 -90.2181 195° South 116 133 1,800 -429 Descending Houston Center
Thu 11:29:33 AM 30.0547 -90.2292 196° South 112 129 1,200 -689 Descending Houston Center
Thu 11:30:34 AM 30.0217 -90.2400 196° South 126 145 400 -787 Descending Houston Center
Thu 11:32:00 AM 29.9833 -90.2500 190° South  Level FlightAware Approximate
Thu 11:39:00 AM 29.9934 -90.2580 190° South  Level Estimated
Thu 11:40:00 AM 29.9934 -90.2580 190° South  Level Estimated
Thu 11:41:00 AM 29.9934 -90.2580 190° South  Level Estimated

Login

Don't have an account? Register now (free) for customized features, flight alerts, and more!